Saint Paul, OR

4:05 PM PDT on September 27, 2016 (GMT -0700)
North Newberg | | Change Station

Elev 240 ft 45.32 °N, 122.97 °W | Updated 436 days ago

Clear
Clear
72 °F
Feels Like 72 °F
N
10
Wind Variable Wind from NNE
Gusts 14 mph

Today
High -- | Low -- °F
--% Chance of Precip.
Yesterday
High -- | Low -- °F
Precip. -- in
Pressure 30.08 in
Visibility 10.0 miles
Clouds Few 3500 ft
Dew Point 52 °F
Humidity 49%
Rainfall in
Snow Depth Not available.
7:05 AM 6:58 PM
Waning Crescent, 9% visible
METAR KUAO 272253Z 01011G17KT 10SM FEW035 23/12 A3008 RMK AO2 SLP185 T02330117
Pressure 30.08 in
Visibility 10.0 miles
Clouds Few 3500 ft
Dew Point 52 °F
Humidity 49%
Rainfall in
Snow Depth Not available.
7:05 AM 6:58 PM
Waning Crescent, 9% visible
METAR KUAO 272253Z 01011G17KT 10SM FEW035 23/12 A3008 RMK AO2 SLP185 T02330117

10-Day Weather Forecast

Almanac

Astronomy

Sep. 27, 2016 Rise Set
Actual Time
Civil Twilight
Nautical Twilight
Astronomical Twilight
Moon
Length of Visible Light
Length of Day
Tomorrow will be .
, % of the Moon is Illuminated

Today's Extremes

State Highs State Lows

Community

WunderPhotos

Upload Photos

1,942,177 photos uploaded!

WunderBlog® & News

Nearby

Air Quality

  Air Quality AQ Index Pollutant
Not available.

Snow Depth

Station Depth Elevation

Earthquake Activity

City Distance Mag. Time & Date
Minimum magnitude displayed is 2.5.

Coastal Water Temperatures

Place Temperature

Stations

Nearby Weather Stations

Station Location Temp. Windchill Dew Point Humidity Wind Precip. Elev Updated Type
                   

Watches & Warnings

There are currently no watches in effect.